Time;durP1;ratioP1;P1;durP2;ratioP2;P2;SDS_P1;SDS_P2;PMS_P1;PMS_P2;Temp;Humidity;BMP_temperature;BMP_pressure;BME280_temperature;BME280_humidity;BME280_pressure;Samples;Min_cycle;Max_cycle;Signal;HPM_P1;HPM_P2
2023/07/03 04:00:43;;;;;;;21.55;10.15;;;19.70;95.50;;;;;;5850611;23;20101;-72
2023/07/03 04:03:08;;;;;;;23.15;10.57;;;19.70;95.60;;;;;;4998332;28;20105;-72
2023/07/03 04:05:34;;;;;;;19.48;10.48;;;19.70;95.90;;;;;;4980868;28;20049;-71
2023/07/03 04:08:00;;;;;;;22.27;10.85;;;19.70;95.80;;;;;;4998685;28;20073;-72
2023/07/03 04:10:25;;;;;;;18.90;10.00;;;19.60;95.90;;;;;;4998731;28;20027;-72
2023/07/03 04:12:51;;;;;;;21.83;9.73;;;19.60;96.20;;;;;;4980343;28;20088;-72
2023/07/03 04:15:17;;;;;;;22.88;10.07;;;19.60;96.20;;;;;;4980428;28;20113;-73
2023/07/03 04:17:42;;;;;;;24.30;10.35;;;19.50;96.30;;;;;;4996828;28;20070;-73
2023/07/03 04:20:15;;;;;;;28.50;10.77;;;19.70;96.20;;;;;;4997926;28;20041;-72
2023/07/03 04:22:41;;;;;;;21.77;10.00;;;19.70;96.00;;;;;;4997010;28;20026;-72
2023/07/03 04:25:07;;;;;;;18.60;9.43;;;19.70;96.00;;;;;;4997051;28;20394;-72
2023/07/03 04:27:33;;;;;;;20.00;8.93;;;19.70;95.80;;;;;;4980637;28;20034;-71
2023/07/03 04:29:59;;;;;;;19.67;9.65;;;19.70;95.70;;;;;;4996844;28;20030;-72
2023/07/03 04:32:25;;;;;;;20.70;10.25;;;19.70;95.80;;;;;;4996579;28;20022;-71
2023/07/03 04:34:51;;;;;;;18.35;9.85;;;19.80;95.60;;;;;;4996388;28;20069;-71
2023/07/03 04:37:17;;;;;;;20.63;9.95;;;20.00;95.10;;;;;;4979658;28;20015;-72
2023/07/03 04:39:43;;;;;;;;;;;19.90;95.10;;;;;;4979996;28;20057;-72
2023/07/03 04:42:13;;;;;;;17.13;8.35;;;19.90;95.10;;;;;;4989936;28;19949;-67
2023/07/03 04:44:39;;;;;;;16.65;8.02;;;20.00;95.30;;;;;;4991829;28;20018;-67
2023/07/03 04:47:05;;;;;;;;;;;20.00;95.20;;;;;;4997088;28;20737;-67
2023/07/03 04:49:32;;;;;;;16.85;8.80;;;20.20;94.70;;;;;;4990082;28;19956;-67
2023/07/03 04:51:58;;;;;;;18.65;8.70;;;20.20;94.30;;;;;;4975695;28;20036;-66
2023/07/03 04:54:24;;;;;;;20.35;8.50;;;20.20;94.60;;;;;;4995347;28;20030;-68
2023/07/03 04:56:49;;;;;;;16.05;8.73;;;20.30;94.10;;;;;;4988882;28;20029;-66
2023/07/03 04:59:15;;;;;;;18.92;8.85;;;20.50;93.90;;;;;;4990129;28;20041;-67
2023/07/03 05:01:42;;;;;;;20.88;8.75;;;20.40;94.10;;;;;;4984879;28;20130;-67
2023/07/03 05:04:09;;;;;;;22.20;8.60;;;20.40;94.20;;;;;;4982549;28;20019;-67
2023/07/03 05:06:35;;;;;;;16.38;8.43;;;20.30;94.80;;;;;;4989960;28;20033;-74
2023/07/03 05:09:00;;;;;;;18.25;8.27;;;20.20;94.30;;;;;;4960403;28;20019;-73
2023/07/03 05:11:26;;;;;;;21.00;9.27;;;20.30;94.30;;;;;;4959813;28;20033;-73
2023/07/03 05:13:52;;;;;;;22.42;9.50;;;20.30;94.30;;;;;;4961067;28;20065;-74
2023/07/03 05:16:17;;;;;;;19.40;8.82;;;20.20;94.40;;;;;;4981383;28;20034;-74
2023/07/03 05:18:43;;;;;;;16.73;7.97;;;20.20;94.40;;;;;;4985922;28;20038;-74
2023/07/03 05:21:10;;;;;;;20.05;8.55;;;20.20;94.50;;;;;;4990513;28;20038;-73
2023/07/03 05:23:36;;;;;;;19.80;9.25;;;20.30;94.50;;;;;;4984960;28;20053;-73
2023/07/03 05:26:01;;;;;;;20.25;9.00;;;20.20;94.60;;;;;;4984166;28;20468;-72
2023/07/03 05:28:27;;;;;;;20.02;9.73;;;20.30;94.60;;;;;;4984209;28;20050;-73
2023/07/03 05:30:54;;;;;;;18.95;9.02;;;20.20;94.70;;;;;;4985545;28;20034;-73
2023/07/03 05:33:20;;;;;;;22.15;8.77;;;20.20;94.70;;;;;;4969477;28;20134;-73
2023/07/03 05:35:45;;;;;;;21.90;8.38;;;20.20;94.90;;;;;;4968516;28;20062;-73
2023/07/03 05:38:11;;;;;;;18.63;9.00;;;20.30;94.70;;;;;;4967698;28;20078;-72
2023/07/03 05:40:36;;;;;;;17.77;8.10;;;20.30;94.70;;;;;;4986696;28;20026;-72
2023/07/03 05:43:02;;;;;;;19.48;7.78;;;20.20;94.70;;;;;;4977805;28;20031;-71
2023/07/03 05:45:27;;;;;;;22.50;8.95;;;20.30;94.60;;;;;;5002130;28;20030;-74
2023/07/03 05:47:53;;;;;;;18.83;8.57;;;20.40;94.50;;;;;;4990247;28;20057;-73
2023/07/03 05:50:18;;;;;;;18.35;8.20;;;20.40;94.40;;;;;;4989258;28;20077;-74
2023/07/03 05:52:44;;;;;;;20.77;9.50;;;20.50;94.30;;;;;;4989365;28;20038;-72
2023/07/03 05:55:10;;;;;;;20.90;9.75;;;20.50;94.20;;;;;;5004875;28;20026;-73
2023/07/03 05:57:37;;;;;;;20.08;9.35;;;20.40;94.30;;;;;;4987688;28;20117;-73
2023/07/03 06:00:10;;;;;;;17.05;8.93;;;20.50;94.20;;;;;;5005598;28;20077;-73
2023/07/03 06:02:37;;;;;;;16.73;8.27;;;20.40;94.00;;;;;;4988240;28;20030;-73
2023/07/03 06:05:03;;;;;;;20.45;8.88;;;20.50;94.00;;;;;;4992932;28;20026;-73
2023/07/03 06:07:28;;;;;;;19.33;8.38;;;20.30;93.70;;;;;;4986010;28;20027;-73
2023/07/03 06:09:54;;;;;;;16.75;7.95;;;20.30;93.80;;;;;;4985607;28;20035;-74
2023/07/03 06:12:19;;;;;;;18.00;7.85;;;20.40;93.60;;;;;;4985540;28;20027;-74
2023/07/03 06:14:45;;;;;;;17.50;7.43;;;20.50;93.70;;;;;;4967266;28;20081;-73
2023/07/03 06:17:10;;;;;;;23.95;9.18;;;20.50;93.60;;;;;;4967882;28;20520;-72
2023/07/03 06:19:36;;;;;;;23.52;7.72;;;20.50;93.20;;;;;;4967317;28;20031;-73
2023/07/03 06:22:01;;;;;;;20.65;9.90;;;20.60;93.20;;;;;;4984321;28;20077;-74
2023/07/03 06:24:27;;;;;;;21.00;8.55;;;20.50;93.20;;;;;;4967502;28;20031;-74
2023/07/03 06:26:53;;;;;;;20.25;7.80;;;20.60;93.30;;;;;;4985157;28;20030;-74
2023/07/03 06:29:19;;;;;;;16.63;8.27;;;20.50;93.50;;;;;;4976299;28;20102;-73
2023/07/03 06:31:45;;;;;;;18.42;8.10;;;20.60;93.20;;;;;;4975904;28;20030;-73
2023/07/03 06:34:10;;;;;;;21.15;8.05;;;20.60;92.80;;;;;;4975359;28;20080;-72
2023/07/03 06:36:36;;;;;;;18.15;7.85;;;20.60;92.90;;;;;;4975033;28;20049;-72
2023/07/03 06:39:07;;;;;;;15.95;7.22;;;20.60;92.80;;;;;;4976504;28;20472;-73
2023/07/03 06:41:34;;;;;;;17.17;8.00;;;20.50;92.90;;;;;;4974840;28;20030;-73
2023/07/03 06:44:00;;;;;;;18.75;7.40;;;20.60;92.90;;;;;;4974895;28;20027;-73
2023/07/03 06:46:26;;;;;;;18.70;7.63;;;20.50;92.90;;;;;;4975993;28;20114;-73
2023/07/03 06:48:55;;;;;;;16.83;7.00;;;20.60;92.90;;;;;;4975481;28;20546;-73
2023/07/03 06:51:21;;;;;;;17.70;6.70;;;20.50;92.90;;;;;;4974362;28;20027;-73
2023/07/03 06:53:47;;;;;;;;;;;20.70;92.50;;;;;;4975516;28;20403;-73
2023/07/03 06:56:12;;;;;;;17.08;6.55;;;20.70;92.40;;;;;;4958303;28;19906;-73
2023/07/03 06:58:38;;;;;;;18.92;5.60;;;20.90;91.60;;;;;;4959198;28;20023;-73
2023/07/03 07:01:08;;;;;;;17.30;6.05;;;20.80;91.50;;;;;;4960372;28;20074;-73
2023/07/03 07:03:35;;;;;;;13.48;5.13;;;20.90;91.20;;;;;;4978178;28;20052;-73
2023/07/03 07:06:06;;;;;;;;;;;21.00;91.20;;;;;;4979238;28;20023;-73
2023/07/03 07:08:32;;;;;;;18.88;6.35;;;21.10;91.20;;;;;;4999459;28;19928;-74
2023/07/03 07:10:58;;;;;;;18.60;6.72;;;21.30;91.20;;;;;;4979947;28;20391;-74
2023/07/03 07:13:23;;;;;;;19.25;6.13;;;21.30;91.30;;;;;;4979709;28;20026;-73
2023/07/03 07:15:49;;;;;;;19.30;6.60;;;21.40;91.30;;;;;;4981793;28;20030;-73
2023/07/03 07:18:14;;;;;;;19.42;6.57;;;21.60;91.20;;;;;;4981071;28;20042;-73
2023/07/03 07:20:40;;;;;;;17.17;6.20;;;21.70;90.90;;;;;;4980673;28;20030;-72
2023/07/03 07:23:07;;;;;;;13.07;5.50;;;21.90;90.40;;;;;;4998476;28;20018;-73
2023/07/03 07:25:33;;;;;;;19.23;6.55;;;22.00;90.10;;;;;;5000398;28;20026;-73
2023/07/03 07:27:58;;;;;;;14.93;5.53;;;21.90;90.20;;;;;;5003754;28;20050;-73
2023/07/03 07:30:24;;;;;;;15.48;5.35;;;22.00;90.10;;;;;;4998562;28;20092;-73
2023/07/03 07:32:50;;;;;;;15.18;5.88;;;22.10;89.90;;;;;;4981426;28;20129;-73
2023/07/03 07:35:16;;;;;;;12.90;5.28;;;21.90;90.00;;;;;;4998374;28;20455;-73
2023/07/03 07:37:42;;;;;;;19.88;6.00;;;22.00;90.00;;;;;;4985226;28;20403;-73
2023/07/03 07:40:08;;;;;;;;;;;22.10;90.10;;;;;;4981485;28;20072;-73
2023/07/03 07:42:33;;;;;;;14.75;5.30;;;22.20;90.00;;;;;;4998558;28;20382;-73
2023/07/03 07:44:59;;;;;;;18.00;5.45;;;22.20;89.80;;;;;;4998593;28;20034;-72
2023/07/03 07:47:25;;;;;;;17.13;5.18;;;22.20;89.40;;;;;;4997954;28;20479;-73
2023/07/03 07:49:50;;;;;;;11.57;4.68;;;22.20;88.50;;;;;;4980015;28;20022;-73
2023/07/03 07:52:16;;;;;;;16.27;5.43;;;22.10;89.70;;;;;;4997374;28;20035;-74
2023/07/03 07:54:42;;;;;;;15.30;5.43;;;22.30;89.10;;;;;;4997601;28;20023;-73
2023/07/03 07:57:08;;;;;;;16.52;5.35;;;22.60;88.60;;;;;;4997396;28;20030;-74
2023/07/03 07:59:37;;;;;;;30.50;6.57;;;22.70;88.10;;;;;;4997995;28;20019;-74
2023/07/03 08:02:03;;;;;;;15.95;5.38;;;22.90;87.90;;;;;;4979919;28;20104;-73
2023/07/03 08:04:29;;;;;;;23.92;5.35;;;23.00;87.50;;;;;;4973556;28;20471;-73
2023/07/03 08:06:54;;;;;;;12.40;5.05;;;23.30;87.50;;;;;;4961527;28;20082;-73
2023/07/03 08:09:22;;;;;;;;;;;23.60;86.80;;;;;;4961208;28;20031;-73
2023/07/03 08:11:47;;;;;;;13.88;5.95;;;23.90;86.40;;;;;;4960329;28;19973;-72
2023/07/03 08:14:13;;;;;;;;;;;24.40;84.30;;;;;;4961008;28;20069;-73
2023/07/03 08:16:38;;;;;;;16.77;5.88;;;24.90;83.10;;;;;;4976588;28;20002;-73
2023/07/03 08:19:03;;;;;;;;;;;26.00;81.50;;;;;;4977764;28;20038;-73
2023/07/03 08:21:29;;;;;;;14.52;4.78;;;26.30;79.70;;;;;;4960014;28;19910;-73
2023/07/03 08:23:54;;;;;;;;;;;25.90;79.70;;;;;;4960405;28;20023;-74
2023/07/03 08:26:23;;;;;;;13.68;5.28;;;25.50;79.50;;;;;;4977866;28;19906;-74
2023/07/03 08:28:48;;;;;;;11.10;4.43;;;25.20;80.10;;;;;;4960225;28;20058;-74
2023/07/03 08:31:14;;;;;;;;;;;24.70;80.70;;;;;;4960654;28;20081;-74
2023/07/03 08:33:39;;;;;;;13.43;4.93;;;24.50;81.50;;;;;;4977673;28;19906;-73
2023/07/03 08:36:05;;;;;;;;;;;24.40;82.00;;;;;;4978299;28;20470;-74
2023/07/03 08:38:31;;;;;;;10.80;4.75;;;24.40;81.80;;;;;;4960399;28;19906;-74
2023/07/03 08:40:58;;;;;;;;;;;24.70;81.50;;;;;;4978671;28;20058;-73
2023/07/03 08:43:30;;;;;;;10.88;3.67;;;25.10;80.90;;;;;;4961789;28;19950;-74
2023/07/03 08:45:57;;;;;;;11.88;5.00;;;26.00;79.30;;;;;;4979523;28;20113;-73
2023/07/03 08:48:26;;;;;;;10.65;4.30;;;25.80;78.70;;;;;;4980264;28;20027;-73
2023/07/03 08:50:55;;;;;;;10.70;4.20;;;25.70;78.90;;;;;;4978635;28;20030;-74
2023/07/03 08:53:30;;;;;;;12.10;3.92;;;25.70;79.10;;;;;;4960967;28;20046;-74
2023/07/03 08:56:01;;;;;;;8.48;3.75;;;25.80;78.70;;;;;;4978159;28;20030;-73
2023/07/03 08:58:27;;;;;;;9.88;3.55;;;25.90;77.70;;;;;;4960410;28;20065;-75
2023/07/03 09:01:15;;;;;;;;;;;26.00;77.50;;;;;;4978424;28;20027;-74
2023/07/03 09:03:49;;;;;;;11.55;3.60;;;25.80;77.50;;;;;;4979831;28;19913;-73
2023/07/03 09:06:47;;;;;;;9.02;3.85;;;26.00;77.60;;;;;;4999083;28;20483;-73
2023/07/03 09:09:36;;;;;;;9.90;4.00;;;26.70;76.20;;;;;;4985316;28;20364;-75
2023/07/03 09:12:01;;;;;;;9.27;3.60;;;27.20;75.20;;;;;;4987459;28;20041;-73
2023/07/03 09:14:33;;;;;;;10.75;3.95;;;27.70;74.00;;;;;;5005670;28;20026;-73
2023/07/03 09:16:59;;;;;;;8.98;3.00;;;27.40;74.50;;;;;;4987297;28;20030;-75
2023/07/03 09:19:27;;;;;;;10.10;3.75;;;27.80;74.10;;;;;;5001271;28;20022;-73
2023/07/03 09:21:57;;;;;;;11.18;3.42;;;27.80;73.60;;;;;;4984117;28;20030;-73
2023/07/03 09:24:40;;;;;;;9.88;3.53;;;27.60;73.60;;;;;;5000180;28;20155;-74
2023/07/03 09:27:20;;;;;;;9.23;3.85;;;27.40;74.00;;;;;;4985321;28;20495;-75
2023/07/03 09:29:46;;;;;;;21.35;5.25;;;27.30;74.40;;;;;;5005234;28;20033;-74
2023/07/03 09:32:25;;;;;;;13.65;3.50;;;27.30;74.70;;;;;;5005065;28;20029;-74
2023/07/03 09:34:59;;;;;;;12.00;3.47;;;27.00;74.60;;;;;;4987862;28;20030;-74
2023/07/03 09:37:25;;;;;;;9.85;3.10;;;27.30;74.50;;;;;;4999972;28;20030;-74
2023/07/03 09:39:55;;;;;;;8.60;3.28;;;27.70;73.70;;;;;;4982449;28;20537;-73
2023/07/03 09:42:21;;;;;;;9.98;3.70;;;27.70;73.50;;;;;;5002518;28;20026;-74
2023/07/03 09:44:48;;;;;;;10.13;3.30;;;27.60;73.40;;;;;;4999032;28;20022;-74
2023/07/03 09:47:22;;;;;;;9.13;3.10;;;28.30;71.70;;;;;;4982632;28;20022;-75
2023/07/03 09:49:48;;;;;;;7.63;2.92;;;27.70;72.00;;;;;;4997581;28;20023;-74
2023/07/03 09:52:14;;;;;;;6.95;2.88;;;26.70;73.60;;;;;;4979608;28;20034;-73
2023/07/03 09:54:46;;;;;;;9.95;3.60;;;26.10;74.60;;;;;;4979909;28;20026;-74
2023/07/03 09:57:38;;;;;;;9.32;3.22;;;25.70;75.60;;;;;;4979054;28;20035;-74
2023/07/03 10:00:15;;;;;;;7.28;2.80;;;25.20;76.70;;;;;;4995223;28;20046;-73
2023/07/03 10:02:42;;;;;;;12.30;3.60;;;24.70;77.60;;;;;;4978665;28;20042;-74
2023/07/03 10:05:16;;;;;;;7.93;2.92;;;24.30;78.30;;;;;;4995856;28;20025;-73
2023/07/03 10:07:44;;;;;;;8.45;2.67;;;24.20;78.90;;;;;;4978281;28;20018;-74
2023/07/03 10:10:16;;;;;;;12.45;3.40;;;24.50;78.90;;;;;;4977670;28;20026;-73
2023/07/03 10:12:48;;;;;;;10.27;3.38;;;25.30;78.00;;;;;;4978091;28;20113;-74
2023/07/03 10:15:23;;;;;;;8.25;2.88;;;25.50;77.30;;;;;;5005938;23;20402;-70
2023/07/03 10:17:54;;;;;;;10.73;2.92;;;25.30;77.50;;;;;;4957812;28;20022;-70
2023/07/03 10:20:25;;;;;;;8.18;2.65;;;25.10;77.80;;;;;;4975468;28;20135;-70
2023/07/03 10:22:52;;;;;;;6.10;2.80;;;24.80;77.80;;;;;;4958036;28;20019;-71
2023/07/03 10:25:24;;;;;;;11.38;2.53;;;25.40;78.70;;;;;;4975257;28;20030;-70
2023/07/03 10:28:00;;;;;;;9.00;2.90;;;27.10;75.70;;;;;;4975256;28;20027;-71
2023/07/03 10:30:30;;;;;;;8.07;3.28;;;28.00;74.30;;;;;;4974071;28;20142;-70
2023/07/03 10:32:59;;;;;;;8.55;2.97;;;28.00;73.90;;;;;;4974731;28;20065;-71
2023/07/03 10:35:30;;;;;;;5.75;2.78;;;27.20;73.60;;;;;;4974089;28;20035;-72
2023/07/03 10:38:16;;;;;;;13.55;3.05;;;26.60;74.50;;;;;;4958351;28;20030;-73
2023/07/03 10:40:51;;;;;;;8.52;2.58;;;25.90;75.70;;;;;;4975548;28;20054;-71
2023/07/03 10:43:18;;;;;;;11.88;2.90;;;25.70;76.10;;;;;;4958086;28;20019;-71
2023/07/03 10:45:45;;;;;;;8.00;2.45;;;25.40;76.60;;;;;;4972066;28;20502;-71
2023/07/03 10:48:14;;;;;;;8.00;2.85;;;25.60;77.60;;;;;;4993545;28;20034;-71
2023/07/03 10:50:52;;;;;;;8.35;3.17;;;26.30;76.00;;;;;;4977343;28;20033;-70
2023/07/03 10:53:41;;;;;;;6.10;2.53;;;26.50;76.00;;;;;;4977006;28;20517;-71
2023/07/03 10:56:14;;;;;;;8.13;2.60;;;27.00;75.00;;;;;;4994513;28;20022;-70
2023/07/03 10:59:06;;;;;;;7.90;2.58;;;27.70;73.80;;;;;;4976689;28;20372;-69
2023/07/03 11:02:05;;;;;;;6.32;2.42;;;29.20;71.90;;;;;;4976400;28;20446;-69
2023/07/03 11:05:14;;;;;;;8.07;2.90;;;29.70;70.40;;;;;;4993695;28;20058;-70
2023/07/03 11:07:57;;;;;;;6.18;2.42;;;29.30;70.80;;;;;;4895927;29;20045;-70
2023/07/03 11:10:44;;;;;;;8.77;2.10;;;28.80;71.90;;;;;;4896268;29;20406;-70
2023/07/03 11:13:28;;;;;;;7.55;2.45;;;29.70;70.50;;;;;;4895992;29;20088;-70
2023/07/03 11:16:12;;;;;;;7.60;2.08;;;30.50;69.10;;;;;;4895618;29;20100;-70
2023/07/03 11:18:58;;;;;;;8.23;1.95;;;29.90;69.20;;;;;;4896284;29;20040;-70
2023/07/03 11:21:31;;;;;;;4.13;1.67;;;28.90;70.20;;;;;;4880309;29;20067;-70
2023/07/03 11:24:44;;;;;;;8.45;1.90;;;28.00;70.90;;;;;;4896581;29;20037;-72
2023/07/03 11:27:14;;;;;;;5.40;1.50;;;27.30;72.50;;;;;;4858894;29;20052;-71
2023/07/03 11:29:41;;;;;;;5.78;1.50;;;26.80;72.90;;;;;;4858515;29;20478;-71
2023/07/03 11:32:08;;;;;;;6.22;1.50;;;26.60;74.00;;;;;;4859016;29;20048;-71
2023/07/03 11:34:35;;;;;;;4.45;1.58;;;26.50;73.50;;;;;;4858677;29;20106;-70
2023/07/03 11:37:01;;;;;;;4.45;1.40;;;26.60;73.50;;;;;;4859290;29;20049;-70
2023/07/03 11:39:33;;;;;;;3.20;1.35;;;26.50;73.60;;;;;;4858865;29;20515;-71
2023/07/03 11:42:01;;;;;;;3.15;1.75;;;26.40;73.10;;;;;;4843073;29;20061;-70
2023/07/03 11:44:37;;;;;;;6.25;2.42;;;26.10;73.80;;;;;;4895911;29;20136;-71
2023/07/03 11:47:33;;;;;;;4.70;1.40;;;25.90;74.40;;;;;;4880172;29;20025;-69
2023/07/03 11:50:00;;;;;;;4.85;1.83;;;25.60;75.00;;;;;;4879556;29;20032;-70
2023/07/03 11:52:30;;;;;;;23.73;13.63;;;25.50;75.30;;;;;;4896050;29;20118;-71
2023/07/03 11:55:04;;;;;;;3.03;1.73;;;25.20;76.10;;;;;;4896040;29;20040;-70
2023/07/03 11:57:34;;;;;;;3.33;1.45;;;25.30;76.00;;;;;;4927017;28;20045;-70
2023/07/03 12:00:22;;;;;;;4.47;1.40;;;25.40;75.90;;;;;;4959010;28;20034;-71
2023/07/03 12:02:48;;;;;;;4.78;1.88;;;25.30;76.20;;;;;;4977663;28;20089;-71
2023/07/03 12:05:33;;;;;;;;;;;25.20;76.80;;;;;;4977996;28;20475;-71
2023/07/03 12:08:00;;;;;;;5.18;1.50;;;25.30;77.10;;;;;;4959895;28;19906;-70
2023/07/03 12:10:29;;;;;;;3.92;1.35;;;25.20;76.60;;;;;;4960474;28;20121;-71
2023/07/03 12:13:32;;;;;;;6.13;1.75;;;25.20;76.60;;;;;;4960582;28;20442;-71
2023/07/03 12:16:02;;;;;;;4.70;1.63;;;25.40;76.60;;;;;;4993495;28;20430;-71
2023/07/03 12:18:28;;;;;;;6.80;1.60;;;25.60;76.30;;;;;;4979234;28;20026;-70
2023/07/03 12:20:57;;;;;;;;;;;25.90;76.00;;;;;;4997253;28;20037;-70
2023/07/03 12:23:35;;;;;;;3.40;1.65;;;26.10;75.50;;;;;;4996612;28;20394;-70
2023/07/03 12:26:02;;;;;;;3.83;1.70;;;26.20;75.50;;;;;;4979019;28;20121;-70
2023/07/03 12:28:28;;;;;;;4.35;1.75;;;26.30;75.70;;;;;;4996590;28;20122;-71
2023/07/03 12:31:18;;;;;;;2.45;1.27;;;26.50;75.10;;;;;;4996726;28;20034;-71
2023/07/03 12:33:58;;;;;;;3.22;1.40;;;26.60;74.90;;;;;;4996498;28;20018;-70
2023/07/03 12:36:34;;;;;;;4.22;1.58;;;26.30;75.60;;;;;;4996599;28;20023;-70
2023/07/03 12:39:09;;;;;;;2.90;1.40;;;26.20;75.60;;;;;;4996639;28;20030;-71
2023/07/03 12:41:35;;;;;;;4.20;1.40;;;26.10;75.50;;;;;;4979424;28;20367;-70
2023/07/03 12:44:01;;;;;;;;;;;26.00;75.80;;;;;;4979675;28;20029;-69
2023/07/03 12:46:27;;;;;;;3.50;1.60;;;26.00;77.00;;;;;;4978622;28;20021;-68
2023/07/03 12:49:07;;;;;;;;;;;25.80;78.10;;;;;;4996584;28;20022;-68
2023/07/03 12:51:41;;;;;;;6.25;1.83;;;25.40;77.90;;;;;;4996326;28;19910;-69
2023/07/03 12:54:12;;;;;;;12.13;2.20;;;25.20;78.10;;;;;;4996034;28;20027;-69
2023/07/03 12:56:39;;;;;;;4.28;1.70;;;25.00;79.00;;;;;;4979001;28;20035;-68
2023/07/03 12:59:07;;;;;;;6.78;1.73;;;25.00;79.60;;;;;;4996427;28;20023;-68
2023/07/03 13:01:33;;;;;;;5.10;1.70;;;25.10;79.30;;;;;;4971019;28;20446;-68
2023/07/03 13:03:58;;;;;;;8.73;1.88;;;25.30;79.50;;;;;;4996351;28;20032;-68
2023/07/03 13:06:26;;;;;;;;;;;25.40;78.80;;;;;;4978887;28;20113;-69
2023/07/03 13:08:52;;;;;;;3.15;1.60;;;25.40;79.50;;;;;;4996694;28;20325;-69
2023/07/03 13:11:39;;;;;;;6.13;1.50;;;25.70;78.80;;;;;;4995441;28;20523;-68
2023/07/03 13:14:10;;;;;;;3.72;1.73;;;25.90;77.20;;;;;;4959634;28;20022;-69
2023/07/03 13:16:35;;;;;;;3.08;1.33;;;26.10;77.20;;;;;;4969260;28;20101;-70
2023/07/03 13:19:01;;;;;;;;;;;26.00;76.50;;;;;;4996694;28;20395;-70
2023/07/03 13:21:27;;;;;;;5.65;1.67;;;25.80;77.50;;;;;;4995730;28;19917;-69
2023/07/03 13:23:52;;;;;;;;;;;25.60;77.90;;;;;;4975015;28;20134;-70
2023/07/03 13:26:23;;;;;;;3.78;1.58;;;25.60;77.90;;;;;;4976534;28;19910;-70
2023/07/03 13:28:59;;;;;;;7.18;2.25;;;25.60;78.00;;;;;;4978027;28;20376;-69
2023/07/03 13:31:26;;;;;;;5.28;1.80;;;25.80;78.30;;;;;;4994087;28;20030;-71
2023/07/03 13:34:15;;;;;;;3.85;2.45;;;26.00;77.80;;;;;;4996635;28;20042;-70
2023/07/03 13:36:53;;;;;;;7.57;2.53;;;26.30;77.30;;;;;;4998966;28;20089;-71
2023/07/03 13:39:18;;;;;;;7.97;2.17;;;26.60;78.00;;;;;;4996571;28;20023;-70
2023/07/03 13:41:45;;;;;;;;;;;26.70;76.90;;;;;;4978040;28;20096;-68
2023/07/03 13:44:16;;;;;;;7.30;2.03;;;26.50;76.70;;;;;;4991208;28;19917;-69
2023/07/03 13:46:43;;;;;;;7.25;2.15;;;26.50;76.60;;;;;;4994064;28;20015;-69
2023/07/03 13:49:11;;;;;;;5.13;1.73;;;26.30;76.70;;;;;;4995250;28;20088;-66
2023/07/03 13:51:40;;;;;;;6.60;2.05;;;26.20;76.80;;;;;;4994296;28;20045;-66
2023/07/03 13:54:08;;;;;;;12.85;3.00;;;26.00;77.40;;;;;;4985644;28;20033;-69
2023/07/03 13:56:34;;;;;;;5.43;2.10;;;25.80;77.80;;;;;;4962782;28;20050;-69
2023/07/03 13:59:04;;;;;;;9.18;2.15;;;25.70;78.90;;;;;;4995479;28;20037;-69
2023/07/03 14:01:31;;;;;;;5.10;1.80;;;25.60;78.90;;;;;;4995466;28;20132;-68
2023/07/03 14:03:57;;;;;;;4.82;2.10;;;25.50;78.40;;;;;;4994913;28;20493;-68
2023/07/03 14:06:22;;;;;;;;;;;25.50;79.30;;;;;;4995705;28;20117;-67
2023/07/03 14:08:48;;;;;;;4.25;1.85;;;25.60;79.20;;;;;;4977402;28;19905;-67
2023/07/03 14:11:13;;;;;;;;;;;25.70;79.20;;;;;;4995230;28;20057;-68
2023/07/03 14:13:41;;;;;;;7.05;2.25;;;25.80;79.00;;;;;;4990620;28;20405;-68
2023/07/03 14:16:08;;;;;;;4.85;2.05;;;25.90;79.00;;;;;;4993879;28;20041;-68
2023/07/03 14:18:33;;;;;;;4.85;1.80;;;25.90;79.00;;;;;;4978355;28;20419;-68
2023/07/03 14:20:59;;;;;;;;;;;25.80;79.30;;;;;;4977717;28;20121;-67
2023/07/03 14:23:26;;;;;;;4.97;1.98;;;25.70;79.70;;;;;;4994502;28;19913;-70
2023/07/03 14:25:53;;;;;;;7.78;2.15;;;25.50;80.30;;;;;;4994739;28;20019;-69
2023/07/03 14:28:18;;;;;;;7.57;2.47;;;25.50;80.30;;;;;;4994572;28;20023;-68
2023/07/03 14:30:45;;;;;;;;;;;25.50;80.70;;;;;;4994758;28;20502;-69
2023/07/03 14:33:10;;;;;;;6.97;2.20;;;25.60;80.70;;;;;;4994488;28;19906;-69
2023/07/03 14:35:36;;;;;;;5.90;1.90;;;25.60;80.70;;;;;;4994747;28;20034;-66
2023/07/03 14:38:02;;;;;;;6.82;1.90;;;25.70;80.60;;;;;;4987881;28;20034;-65
2023/07/03 14:40:27;;;;;;;;;;;25.90;80.40;;;;;;4995062;28;20380;-68
2023/07/03 14:42:53;;;;;;;5.78;1.83;;;26.10;79.90;;;;;;4994117;28;19905;-67
2023/07/03 14:45:18;;;;;;;6.20;2.22;;;26.30;79.50;;;;;;4993736;28;20031;-67
2023/07/03 14:47:44;;;;;;;;;;;26.20;79.30;;;;;;4994482;28;20081;-67
2023/07/03 14:50:11;;;;;;;5.32;3.45;;;26.10;80.00;;;;;;4994321;28;19910;-69
2023/07/03 14:52:43;;;;;;;4.50;2.00;;;26.10;80.30;;;;;;4994625;28;20031;-68
2023/07/03 14:55:11;;;;;;;8.10;4.25;;;26.20;80.20;;;;;;4994157;28;20030;-67
2023/07/03 14:57:37;;;;;;;7.90;1.85;;;26.10;79.40;;;;;;4976860;28;20053;-72
2023/07/03 15:00:03;;;;;;;;;;;26.00;80.00;;;;;;4994468;28;20026;-68
2023/07/03 15:02:29;;;;;;;4.78;2.08;;;26.00;79.80;;;;;;4994086;28;19956;-65
2023/07/03 15:04:54;;;;;;;;;;;26.00;79.80;;;;;;4994867;28;20027;-66
2023/07/03 15:07:20;;;;;;;5.72;1.88;;;25.80;80.10;;;;;;4993925;28;19953;-66
2023/07/03 15:09:45;;;;;;;;;;;25.80;80.10;;;;;;4994348;28;20027;-67
2023/07/03 15:12:11;;;;;;;3.90;1.98;;;25.90;80.30;;;;;;4994252;28;19941;-72
2023/07/03 15:14:38;;;;;;;4.18;1.70;;;25.90;80.30;;;;;;4994476;28;20164;-70
2023/07/03 15:17:04;;;;;;;4.95;1.90;;;26.00;80.10;;;;;;4976370;28;20032;-73
2023/07/03 15:19:30;;;;;;;4.22;1.67;;;26.00;80.10;;;;;;4994112;28;20031;-69
2023/07/03 15:21:56;;;;;;;;;;;26.10;79.90;;;;;;4994463;28;20505;-71
2023/07/03 15:24:22;;;;;;;4.15;1.98;;;26.20;79.80;;;;;;4995175;28;19905;-71
2023/07/03 15:26:48;;;;;;;5.60;1.75;;;26.10;79.80;;;;;;4994009;28;20027;-69
2023/07/03 15:29:14;;;;;;;;;;;26.00;79.70;;;;;;4976902;28;20018;-71
2023/07/03 15:31:40;;;;;;;4.78;1.98;;;25.80;79.90;;;;;;4993519;28;19906;-67
2023/07/03 15:34:06;;;;;;;5.13;2.10;;;25.80;80.30;;;;;;4995199;28;20031;-69
2023/07/03 15:36:31;;;;;;;;;;;25.80;79.90;;;;;;4998138;28;20113;-69
2023/07/03 15:38:58;;;;;;;5.00;2.17;;;25.70;80.70;;;;;;4997882;28;19965;-69
2023/07/03 15:41:25;;;;;;;2.95;1.48;;;25.90;80.20;;;;;;4997877;28;20041;-69
2023/07/03 15:43:51;;;;;;;4.45;1.77;;;25.80;80.00;;;;;;4998011;28;20022;-69
2023/07/03 15:46:17;;;;;;;4.88;2.15;;;25.80;80.10;;;;;;4978948;28;20026;-66
2023/07/03 15:48:46;;;;;;;;;;;25.50;80.50;;;;;;4978759;28;20050;-70
2023/07/03 15:51:15;;;;;;;5.28;1.67;;;25.40;81.10;;;;;;4978495;28;19913;-68
2023/07/03 15:53:41;;;;;;;4.25;1.98;;;25.40;81.40;;;;;;4978206;28;20031;-67
2023/07/03 15:56:12;;;;;;;4.13;1.70;;;25.20;81.80;;;;;;4978362;28;20026;-68
2023/07/03 15:58:45;;;;;;;3.72;1.63;;;25.20;82.30;;;;;;4978527;28;20022;-68
2023/07/03 16:01:18;;;;;;;4.68;1.70;;;24.90;85.80;;;;;;4978939;28;20033;-68
2023/07/03 16:03:45;;;;;;;5.00;1.70;;;24.40;88.80;;;;;;4978372;28;20034;-69
2023/07/03 16:06:16;;;;;;;4.50;1.75;;;24.00;90.70;;;;;;4993383;28;20030;-65
2023/07/03 16:08:43;;;;;;;5.28;1.70;;;23.80;91.00;;;;;;4998225;28;20022;-68
2023/07/03 16:11:12;;;;;;;4.15;1.70;;;23.80;90.60;;;;;;4999852;28;20023;-69
2023/07/03 16:13:38;;;;;;;3.78;1.85;;;23.90;92.00;;;;;;4988963;28;20066;-70
2023/07/03 16:16:05;;;;;;;;;;;24.10;90.60;;;;;;4962075;28;20045;-69
2023/07/03 16:18:33;;;;;;;3.72;1.60;;;24.20;87.50;;;;;;4978417;28;19906;-68
2023/07/03 16:21:01;;;;;;;5.63;1.88;;;24.30;86.80;;;;;;4976983;28;20102;-69
2023/07/03 16:23:28;;;;;;;5.72;1.88;;;24.30;87.00;;;;;;5000584;28;20404;-69
2023/07/03 16:25:59;;;;;;;5.55;1.67;;;24.20;87.20;;;;;;4997613;28;20025;-70
2023/07/03 16:28:29;;;;;;;4.07;1.80;;;24.30;87.50;;;;;;4998076;28;20019;-72
2023/07/03 16:31:06;;;;;;;3.75;1.45;;;24.40;86.80;;;;;;4997033;28;20073;-71
2023/07/03 16:33:34;;;;;;;4.05;1.60;;;24.60;87.00;;;;;;4996824;28;20026;-70
2023/07/03 16:36:03;;;;;;;3.10;1.65;;;24.60;87.20;;;;;;4997643;28;20383;-69
2023/07/03 16:38:29;;;;;;;2.63;1.40;;;24.60;87.20;;;;;;4979958;28;20471;-69
2023/07/03 16:41:04;;;;;;;3.72;1.40;;;24.50;88.00;;;;;;4998568;28;20030;-69
2023/07/03 16:43:36;;;;;;;4.57;1.67;;;24.50;87.70;;;;;;4998661;28;20148;-69
2023/07/03 16:46:03;;;;;;;6.20;1.67;;;24.40;87.70;;;;;;4996570;28;20018;-68
2023/07/03 16:48:30;;;;;;;4.18;1.70;;;24.30;87.40;;;;;;4997530;28;20019;-69
2023/07/03 16:50:58;;;;;;;3.65;1.90;;;24.20;88.00;;;;;;4998151;28;20084;-69
2023/07/03 16:53:25;;;;;;;3.75;2.05;;;24.10;88.50;;;;;;4996993;28;20076;-68
2023/07/03 16:55:52;;;;;;;5.82;1.88;;;23.90;88.90;;;;;;4994316;28;20031;-68
2023/07/03 16:58:18;;;;;;;4.53;1.92;;;23.90;89.20;;;;;;4996035;28;20041;-70
2023/07/03 17:00:45;;;;;;;6.65;2.47;;;23.70;89.70;;;;;;4984667;28;20395;-71